sensor_id;sensor_type;location;lat;lon;timestamp;P1;durP1;ratioP1;P2;durP2;ratioP2
54899;SDS011;40801;41.924;25.562;2023-11-21T00:01:55;10.00;;;8.93;;
54899;SDS011;40801;41.924;25.562;2023-11-21T00:04:22;9.73;;;8.68;;
54899;SDS011;40801;41.924;25.562;2023-11-21T00:06:47;9.40;;;8.55;;
54899;SDS011;40801;41.924;25.562;2023-11-21T00:09:13;8.98;;;8.18;;
54899;SDS011;40801;41.924;25.562;2023-11-21T00:14:08;9.00;;;7.82;;
54899;SDS011;40801;41.924;25.562;2023-11-21T00:16:34;8.25;;;7.55;;
54899;SDS011;40801;41.924;25.562;2023-11-21T00:18:59;8.50;;;7.80;;
54899;SDS011;40801;41.924;25.562;2023-11-21T00:21:25;8.75;;;7.93;;
54899;SDS011;40801;41.924;25.562;2023-11-21T00:23:50;8.20;;;7.40;;
54899;SDS011;40801;41.924;25.562;2023-11-21T00:26:16;9.88;;;8.75;;
54899;SDS011;40801;41.924;25.562;2023-11-21T00:28:42;8.75;;;7.90;;
54899;SDS011;40801;41.924;25.562;2023-11-21T00:31:07;9.70;;;8.45;;
54899;SDS011;40801;41.924;25.562;2023-11-21T00:33:32;8.13;;;7.40;;
54899;SDS011;40801;41.924;25.562;2023-11-21T00:35:58;8.40;;;7.57;;
54899;SDS011;40801;41.924;25.562;2023-11-21T00:38:24;8.85;;;7.93;;
54899;SDS011;40801;41.924;25.562;2023-11-21T00:40:49;8.70;;;7.78;;
54899;SDS011;40801;41.924;25.562;2023-11-21T00:43:15;8.20;;;7.40;;
54899;SDS011;40801;41.924;25.562;2023-11-21T00:45:40;7.65;;;6.95;;
54899;SDS011;40801;41.924;25.562;2023-11-21T00:48:06;8.30;;;7.60;;
54899;SDS011;40801;41.924;25.562;2023-11-21T00:50:33;8.45;;;7.60;;
54899;SDS011;40801;41.924;25.562;2023-11-21T00:52:58;8.93;;;8.23;;
54899;SDS011;40801;41.924;25.562;2023-11-21T00:55:24;8.95;;;7.85;;
54899;SDS011;40801;41.924;25.562;2023-11-21T00:57:51;8.73;;;7.93;;
54899;SDS011;40801;41.924;25.562;2023-11-21T01:00:16;8.20;;;7.50;;
54899;SDS011;40801;41.924;25.562;2023-11-21T01:02:45;8.57;;;7.72;;
54899;SDS011;40801;41.924;25.562;2023-11-21T01:05:11;7.72;;;7.07;;
54899;SDS011;40801;41.924;25.562;2023-11-21T01:07:37;9.13;;;8.25;;
54899;SDS011;40801;41.924;25.562;2023-11-21T01:10:03;9.80;;;7.80;;
54899;SDS011;40801;41.924;25.562;2023-11-21T01:14:57;8.98;;;8.18;;
54899;SDS011;40801;41.924;25.562;2023-11-21T01:17:25;11.98;;;9.30;;
54899;SDS011;40801;41.924;25.562;2023-11-21T01:19:52;8.90;;;7.35;;
54899;SDS011;40801;41.924;25.562;2023-11-21T01:22:17;10.57;;;9.45;;
54899;SDS011;40801;41.924;25.562;2023-11-21T01:27:12;10.90;;;9.02;;
54899;SDS011;40801;41.924;25.562;2023-11-21T01:29:37;10.07;;;9.07;;
54899;SDS011;40801;41.924;25.562;2023-11-21T01:32:03;12.70;;;9.65;;
54899;SDS011;40801;41.924;25.562;2023-11-21T01:34:29;9.30;;;8.40;;
54899;SDS011;40801;41.924;25.562;2023-11-21T01:36:55;8.98;;;8.05;;
54899;SDS011;40801;41.924;25.562;2023-11-21T01:39:21;9.38;;;8.48;;
54899;SDS011;40801;41.924;25.562;2023-11-21T01:41:49;15.13;;;12.13;;
54899;SDS011;40801;41.924;25.562;2023-11-21T01:44:16;15.07;;;11.10;;
54899;SDS011;40801;41.924;25.562;2023-11-21T01:46:42;16.52;;;12.90;;
54899;SDS011;40801;41.924;25.562;2023-11-21T01:49:07;17.25;;;13.32;;
54899;SDS011;40801;41.924;25.562;2023-11-21T01:51:38;13.75;;;12.00;;
54899;SDS011;40801;41.924;25.562;2023-11-21T01:54:05;13.98;;;10.93;;
54899;SDS011;40801;41.924;25.562;2023-11-21T01:56:31;11.80;;;10.70;;
54899;SDS011;40801;41.924;25.562;2023-11-21T01:58:57;15.52;;;11.93;;
54899;SDS011;40801;41.924;25.562;2023-11-21T02:01:23;11.82;;;10.60;;
54899;SDS011;40801;41.924;25.562;2023-11-21T02:03:48;12.02;;;10.90;;
54899;SDS011;40801;41.924;25.562;2023-11-21T02:06:14;11.63;;;10.43;;
54899;SDS011;40801;41.924;25.562;2023-11-21T02:08:40;10.50;;;9.57;;
54899;SDS011;40801;41.924;25.562;2023-11-21T02:11:07;9.40;;;8.15;;
54899;SDS011;40801;41.924;25.562;2023-11-21T02:13:34;8.50;;;7.65;;
54899;SDS011;40801;41.924;25.562;2023-11-21T02:16:00;8.93;;;7.50;;
54899;SDS011;40801;41.924;25.562;2023-11-21T02:18:26;10.60;;;9.57;;
54899;SDS011;40801;41.924;25.562;2023-11-21T02:20:54;9.93;;;8.18;;
54899;SDS011;40801;41.924;25.562;2023-11-21T02:23:20;9.57;;;8.73;;
54899;SDS011;40801;41.924;25.562;2023-11-21T02:25:46;12.07;;;9.43;;
54899;SDS011;40801;41.924;25.562;2023-11-21T02:28:12;13.75;;;9.77;;
54899;SDS011;40801;41.924;25.562;2023-11-21T02:30:40;15.68;;;12.93;;
54899;SDS011;40801;41.924;25.562;2023-11-21T02:33:06;13.25;;;11.30;;
54899;SDS011;40801;41.924;25.562;2023-11-21T02:35:32;14.02;;;11.32;;
54899;SDS011;40801;41.924;25.562;2023-11-21T02:37:57;14.35;;;10.75;;
54899;SDS011;40801;41.924;25.562;2023-11-21T02:40:23;13.15;;;10.48;;
54899;SDS011;40801;41.924;25.562;2023-11-21T02:42:50;12.15;;;8.60;;
54899;SDS011;40801;41.924;25.562;2023-11-21T02:45:16;10.02;;;9.02;;
54899;SDS011;40801;41.924;25.562;2023-11-21T02:47:43;9.70;;;8.77;;
54899;SDS011;40801;41.924;25.562;2023-11-21T02:50:09;12.75;;;9.55;;
54899;SDS011;40801;41.924;25.562;2023-11-21T02:52:35;11.70;;;10.48;;
54899;SDS011;40801;41.924;25.562;2023-11-21T02:55:03;14.07;;;9.98;;
54899;SDS011;40801;41.924;25.562;2023-11-21T02:57:29;11.30;;;9.50;;
54899;SDS011;40801;41.924;25.562;2023-11-21T02:59:55;11.45;;;9.73;;
54899;SDS011;40801;41.924;25.562;2023-11-21T03:02:20;12.32;;;10.13;;
54899;SDS011;40801;41.924;25.562;2023-11-21T03:04:47;12.60;;;11.43;;
54899;SDS011;40801;41.924;25.562;2023-11-21T03:07:14;13.82;;;11.27;;
54899;SDS011;40801;41.924;25.562;2023-11-21T03:09:40;14.98;;;10.85;;
54899;SDS011;40801;41.924;25.562;2023-11-21T03:12:06;15.48;;;10.93;;
54899;SDS011;40801;41.924;25.562;2023-11-21T03:14:31;13.05;;;11.30;;
54899;SDS011;40801;41.924;25.562;2023-11-21T03:16:57;13.75;;;11.95;;
54899;SDS011;40801;41.924;25.562;2023-11-21T03:19:22;12.55;;;11.40;;
54899;SDS011;40801;41.924;25.562;2023-11-21T03:21:48;13.40;;;12.10;;
54899;SDS011;40801;41.924;25.562;2023-11-21T03:24:14;15.25;;;13.60;;
54899;SDS011;40801;41.924;25.562;2023-11-21T03:26:44;13.75;;;12.27;;
54899;SDS011;40801;41.924;25.562;2023-11-21T03:29:09;14.32;;;10.85;;
54899;SDS011;40801;41.924;25.562;2023-11-21T03:31:35;10.88;;;9.82;;
54899;SDS011;40801;41.924;25.562;2023-11-21T03:34:01;11.10;;;9.00;;
54899;SDS011;40801;41.924;25.562;2023-11-21T03:36:26;12.52;;;9.60;;
54899;SDS011;40801;41.924;25.562;2023-11-21T03:38:52;11.15;;;8.75;;
54899;SDS011;40801;41.924;25.562;2023-11-21T03:41:17;11.93;;;9.43;;
54899;SDS011;40801;41.924;25.562;2023-11-21T03:43:43;12.30;;;9.73;;
54899;SDS011;40801;41.924;25.562;2023-11-21T03:46:08;11.48;;;9.93;;
54899;SDS011;40801;41.924;25.562;2023-11-21T03:48:33;12.13;;;9.10;;
54899;SDS011;40801;41.924;25.562;2023-11-21T03:50:59;10.88;;;7.90;;
54899;SDS011;40801;41.924;25.562;2023-11-21T03:53:24;10.25;;;9.27;;
54899;SDS011;40801;41.924;25.562;2023-11-21T03:55:50;10.23;;;9.15;;
54899;SDS011;40801;41.924;25.562;2023-11-21T03:58:15;11.80;;;9.23;;
54899;SDS011;40801;41.924;25.562;2023-11-21T04:00:40;9.85;;;8.93;;
54899;SDS011;40801;41.924;25.562;2023-11-21T04:03:06;10.13;;;9.23;;
54899;SDS011;40801;41.924;25.562;2023-11-21T04:05:32;10.25;;;9.18;;
54899;SDS011;40801;41.924;25.562;2023-11-21T04:07:57;13.38;;;11.05;;
54899;SDS011;40801;41.924;25.562;2023-11-21T04:10:23;11.30;;;9.63;;
54899;SDS011;40801;41.924;25.562;2023-11-21T04:12:48;11.98;;;10.40;;
54899;SDS011;40801;41.924;25.562;2023-11-21T04:15:14;12.85;;;10.68;;
54899;SDS011;40801;41.924;25.562;2023-11-21T04:17:39;16.02;;;13.43;;
54899;SDS011;40801;41.924;25.562;2023-11-21T04:20:06;19.40;;;15.40;;
54899;SDS011;40801;41.924;25.562;2023-11-21T04:22:35;24.55;;;16.27;;
54899;SDS011;40801;41.924;25.562;2023-11-21T04:25:01;22.90;;;17.60;;
54899;SDS011;40801;41.924;25.562;2023-11-21T04:27:27;18.85;;;16.17;;
54899;SDS011;40801;41.924;25.562;2023-11-21T04:29:52;28.70;;;18.75;;
54899;SDS011;40801;41.924;25.562;2023-11-21T04:32:18;24.65;;;18.95;;
54899;SDS011;40801;41.924;25.562;2023-11-21T04:34:44;24.77;;;19.05;;
54899;SDS011;40801;41.924;25.562;2023-11-21T04:37:09;22.45;;;18.35;;
54899;SDS011;40801;41.924;25.562;2023-11-21T04:39:35;20.38;;;16.38;;
54899;SDS011;40801;41.924;25.562;2023-11-21T04:42:01;23.15;;;17.80;;
54899;SDS011;40801;41.924;25.562;2023-11-21T04:44:26;22.10;;;17.67;;
54899;SDS011;40801;41.924;25.562;2023-11-21T04:46:52;22.40;;;19.23;;
54899;SDS011;40801;41.924;25.562;2023-11-21T04:49:17;29.60;;;23.00;;
54899;SDS011;40801;41.924;25.562;2023-11-21T04:51:42;24.35;;;20.30;;
54899;SDS011;40801;41.924;25.562;2023-11-21T04:54:08;27.88;;;21.17;;
54899;SDS011;40801;41.924;25.562;2023-11-21T04:56:34;31.17;;;24.60;;
54899;SDS011;40801;41.924;25.562;2023-11-21T04:58:59;35.40;;;27.52;;
54899;SDS011;40801;41.924;25.562;2023-11-21T05:01:25;34.70;;;27.10;;
54899;SDS011;40801;41.924;25.562;2023-11-21T05:03:50;35.72;;;28.83;;
54899;SDS011;40801;41.924;25.562;2023-11-21T05:06:17;37.17;;;26.52;;
54899;SDS011;40801;41.924;25.562;2023-11-21T05:08:42;32.92;;;28.13;;
54899;SDS011;40801;41.924;25.562;2023-11-21T05:11:08;39.90;;;29.10;;
54899;SDS011;40801;41.924;25.562;2023-11-21T05:13:35;37.92;;;28.50;;
54899;SDS011;40801;41.924;25.562;2023-11-21T05:16:01;32.80;;;27.90;;
54899;SDS011;40801;41.924;25.562;2023-11-21T05:18:29;32.92;;;26.50;;
54899;SDS011;40801;41.924;25.562;2023-11-21T05:20:55;30.48;;;25.30;;
54899;SDS011;40801;41.924;25.562;2023-11-21T05:23:20;36.55;;;25.80;;
54899;SDS011;40801;41.924;25.562;2023-11-21T05:25:46;31.00;;;25.27;;
54899;SDS011;40801;41.924;25.562;2023-11-21T05:28:12;31.00;;;23.70;;
54899;SDS011;40801;41.924;25.562;2023-11-21T05:30:37;25.55;;;20.92;;
54899;SDS011;40801;41.924;25.562;2023-11-21T05:33:06;24.50;;;19.15;;
54899;SDS011;40801;41.924;25.562;2023-11-21T05:35:31;36.70;;;32.63;;
54899;SDS011;40801;41.924;25.562;2023-11-21T05:37:56;47.85;;;39.65;;
54899;SDS011;40801;41.924;25.562;2023-11-21T05:40:22;33.33;;;28.80;;
54899;SDS011;40801;41.924;25.562;2023-11-21T05:42:48;28.38;;;24.45;;
54899;SDS011;40801;41.924;25.562;2023-11-21T05:45:14;25.80;;;22.30;;
54899;SDS011;40801;41.924;25.562;2023-11-21T05:47:41;27.67;;;22.83;;
54899;SDS011;40801;41.924;25.562;2023-11-21T05:50:10;27.05;;;23.55;;
54899;SDS011;40801;41.924;25.562;2023-11-21T05:52:39;28.15;;;23.60;;
54899;SDS011;40801;41.924;25.562;2023-11-21T05:55:06;34.67;;;28.67;;
54899;SDS011;40801;41.924;25.562;2023-11-21T05:57:35;33.15;;;25.20;;
54899;SDS011;40801;41.924;25.562;2023-11-21T06:00:04;26.55;;;23.25;;
54899;SDS011;40801;41.924;25.562;2023-11-21T06:02:52;32.53;;;25.70;;
54899;SDS011;40801;41.924;25.562;2023-11-21T06:05:18;30.35;;;24.73;;
54899;SDS011;40801;41.924;25.562;2023-11-21T06:07:46;36.50;;;27.75;;
54899;SDS011;40801;41.924;25.562;2023-11-21T06:10:11;48.28;;;31.67;;
54899;SDS011;40801;41.924;25.562;2023-11-21T06:12:39;33.53;;;27.48;;
54899;SDS011;40801;41.924;25.562;2023-11-21T06:15:08;40.50;;;28.67;;
54899;SDS011;40801;41.924;25.562;2023-11-21T06:17:35;38.65;;;29.85;;
54899;SDS011;40801;41.924;25.562;2023-11-21T06:20:05;38.72;;;29.33;;
54899;SDS011;40801;41.924;25.562;2023-11-21T06:22:37;36.75;;;28.83;;
54899;SDS011;40801;41.924;25.562;2023-11-21T06:27:31;35.30;;;28.02;;
54899;SDS011;40801;41.924;25.562;2023-11-21T06:29:57;39.30;;;29.88;;
54899;SDS011;40801;41.924;25.562;2023-11-21T06:32:23;41.60;;;31.13;;
54899;SDS011;40801;41.924;25.562;2023-11-21T06:34:48;47.45;;;42.53;;
54899;SDS011;40801;41.924;25.562;2023-11-21T06:37:14;56.95;;;50.83;;
54899;SDS011;40801;41.924;25.562;2023-11-21T06:39:40;56.65;;;47.80;;
54899;SDS011;40801;41.924;25.562;2023-11-21T06:42:06;46.45;;;41.22;;
54899;SDS011;40801;41.924;25.562;2023-11-21T06:44:32;40.40;;;36.13;;
54899;SDS011;40801;41.924;25.562;2023-11-21T06:46:58;45.55;;;39.35;;
54899;SDS011;40801;41.924;25.562;2023-11-21T06:49:24;46.13;;;41.10;;
54899;SDS011;40801;41.924;25.562;2023-11-21T06:51:49;45.08;;;40.38;;
54899;SDS011;40801;41.924;25.562;2023-11-21T06:54:15;41.92;;;37.55;;
54899;SDS011;40801;41.924;25.562;2023-11-21T06:56:40;38.05;;;33.95;;
54899;SDS011;40801;41.924;25.562;2023-11-21T06:59:06;34.20;;;30.85;;
54899;SDS011;40801;41.924;25.562;2023-11-21T07:01:31;27.33;;;23.35;;
54899;SDS011;40801;41.924;25.562;2023-11-21T07:04:04;27.00;;;24.33;;
54899;SDS011;40801;41.924;25.562;2023-11-21T07:06:30;91.93;;;83.72;;
54899;SDS011;40801;41.924;25.562;2023-11-21T07:08:56;28.15;;;24.30;;
54899;SDS011;40801;41.924;25.562;2023-11-21T07:11:22;26.77;;;24.13;;
54899;SDS011;40801;41.924;25.562;2023-11-21T07:13:47;25.52;;;22.48;;
54899;SDS011;40801;41.924;25.562;2023-11-21T07:16:13;22.65;;;20.40;;
54899;SDS011;40801;41.924;25.562;2023-11-21T07:18:40;23.42;;;20.85;;
54899;SDS011;40801;41.924;25.562;2023-11-21T07:21:05;18.88;;;17.10;;
54899;SDS011;40801;41.924;25.562;2023-11-21T07:23:31;18.23;;;16.33;;
54899;SDS011;40801;41.924;25.562;2023-11-21T07:25:56;17.55;;;15.45;;
54899;SDS011;40801;41.924;25.562;2023-11-21T07:28:22;13.30;;;12.10;;
54899;SDS011;40801;41.924;25.562;2023-11-21T07:30:50;12.32;;;11.07;;
54899;SDS011;40801;41.924;25.562;2023-11-21T07:33:16;11.75;;;9.60;;
54899;SDS011;40801;41.924;25.562;2023-11-21T07:35:42;13.40;;;10.32;;
54899;SDS011;40801;41.924;25.562;2023-11-21T07:38:08;10.32;;;9.35;;
54899;SDS011;40801;41.924;25.562;2023-11-21T07:40:33;10.98;;;9.82;;
54899;SDS011;40801;41.924;25.562;2023-11-21T07:42:59;9.90;;;8.95;;
54899;SDS011;40801;41.924;25.562;2023-11-21T07:45:25;10.82;;;9.90;;
54899;SDS011;40801;41.924;25.562;2023-11-21T07:47:53;10.00;;;9.18;;
54899;SDS011;40801;41.924;25.562;2023-11-21T07:50:19;8.40;;;7.60;;
54899;SDS011;40801;41.924;25.562;2023-11-21T07:52:45;7.07;;;6.38;;
54899;SDS011;40801;41.924;25.562;2023-11-21T07:55:11;10.77;;;7.07;;
54899;SDS011;40801;41.924;25.562;2023-11-21T07:57:36;8.75;;;7.75;;
54899;SDS011;40801;41.924;25.562;2023-11-21T08:00:03;9.00;;;7.82;;
54899;SDS011;40801;41.924;25.562;2023-11-21T08:02:31;8.68;;;7.25;;
54899;SDS011;40801;41.924;25.562;2023-11-21T08:04:57;8.50;;;7.60;;
54899;SDS011;40801;41.924;25.562;2023-11-21T08:07:22;11.02;;;8.85;;
54899;SDS011;40801;41.924;25.562;2023-11-21T08:09:47;10.82;;;8.85;;
54899;SDS011;40801;41.924;25.562;2023-11-21T08:12:15;9.00;;;8.20;;
54899;SDS011;40801;41.924;25.562;2023-11-21T08:14:40;7.13;;;6.53;;
54899;SDS011;40801;41.924;25.562;2023-11-21T08:17:06;6.57;;;6.00;;
54899;SDS011;40801;41.924;25.562;2023-11-21T08:19:31;9.18;;;8.38;;
54899;SDS011;40801;41.924;25.562;2023-11-21T08:21:57;9.45;;;8.55;;
54899;SDS011;40801;41.924;25.562;2023-11-21T08:24:24;8.25;;;7.55;;
54899;SDS011;40801;41.924;25.562;2023-11-21T08:26:50;9.13;;;8.32;;
54899;SDS011;40801;41.924;25.562;2023-11-21T08:29:17;7.68;;;6.97;;
54899;SDS011;40801;41.924;25.562;2023-11-21T08:31:43;6.80;;;6.20;;
54899;SDS011;40801;41.924;25.562;2023-11-21T08:34:11;9.00;;;7.60;;
54899;SDS011;40801;41.924;25.562;2023-11-21T08:36:41;9.20;;;6.07;;
54899;SDS011;40801;41.924;25.562;2023-11-21T08:39:10;6.53;;;4.30;;
54899;SDS011;40801;41.924;25.562;2023-11-21T08:41:36;4.72;;;4.28;;
54899;SDS011;40801;41.924;25.562;2023-11-21T08:44:02;5.70;;;5.18;;
54899;SDS011;40801;41.924;25.562;2023-11-21T08:46:31;9.95;;;9.13;;
54899;SDS011;40801;41.924;25.562;2023-11-21T08:48:58;39.47;;;35.67;;
54899;SDS011;40801;41.924;25.562;2023-11-21T08:51:26;5.68;;;5.18;;
54899;SDS011;40801;41.924;25.562;2023-11-21T08:53:51;5.75;;;5.25;;
54899;SDS011;40801;41.924;25.562;2023-11-21T08:56:17;4.43;;;4.10;;
54899;SDS011;40801;41.924;25.562;2023-11-21T08:58:43;7.30;;;6.90;;
54899;SDS011;40801;41.924;25.562;2023-11-21T09:01:09;16.65;;;14.60;;
54899;SDS011;40801;41.924;25.562;2023-11-21T09:03:34;5.63;;;5.32;;
54899;SDS011;40801;41.924;25.562;2023-11-21T09:06:00;17.02;;;14.70;;
54899;SDS011;40801;41.924;25.562;2023-11-21T09:08:25;12.25;;;11.10;;
54899;SDS011;40801;41.924;25.562;2023-11-21T09:10:53;12.90;;;10.20;;
54899;SDS011;40801;41.924;25.562;2023-11-21T09:13:18;3.67;;;3.47;;
54899;SDS011;40801;41.924;25.562;2023-11-21T09:15:44;6.78;;;5.57;;
54899;SDS011;40801;41.924;25.562;2023-11-21T09:18:12;5.60;;;4.93;;
54899;SDS011;40801;41.924;25.562;2023-11-21T09:20:38;4.07;;;3.72;;
54899;SDS011;40801;41.924;25.562;2023-11-21T09:23:04;3.95;;;3.55;;
54899;SDS011;40801;41.924;25.562;2023-11-21T09:25:29;3.00;;;2.80;;
54899;SDS011;40801;41.924;25.562;2023-11-21T09:27:55;3.97;;;3.67;;
54899;SDS011;40801;41.924;25.562;2023-11-21T09:30:22;4.25;;;3.92;;
54899;SDS011;40801;41.924;25.562;2023-11-21T09:32:49;4.05;;;3.72;;
54899;SDS011;40801;41.924;25.562;2023-11-21T09:35:15;7.15;;;6.55;;
54899;SDS011;40801;41.924;25.562;2023-11-21T09:37:43;6.32;;;5.72;;
54899;SDS011;40801;41.924;25.562;2023-11-21T09:42:39;3.83;;;3.53;;
54899;SDS011;40801;41.924;25.562;2023-11-21T09:45:23;4.07;;;3.35;;
54899;SDS011;40801;41.924;25.562;2023-11-21T09:47:52;4.32;;;3.92;;
54899;SDS011;40801;41.924;25.562;2023-11-21T09:50:19;6.28;;;5.70;;
54899;SDS011;40801;41.924;25.562;2023-11-21T09:55:38;3.88;;;3.58;;
54899;SDS011;40801;41.924;25.562;2023-11-21T09:58:10;9.65;;;7.85;;
54899;SDS011;40801;41.924;25.562;2023-11-21T10:00:38;11.63;;;10.55;;
54899;SDS011;40801;41.924;25.562;2023-11-21T10:03:06;3.80;;;2.83;;
54899;SDS011;40801;41.924;25.562;2023-11-21T10:05:32;3.10;;;2.80;;
54899;SDS011;40801;41.924;25.562;2023-11-21T10:07:59;4.53;;;4.13;;
54899;SDS011;40801;41.924;25.562;2023-11-21T10:10:25;2.17;;;1.98;;
54899;SDS011;40801;41.924;25.562;2023-11-21T10:12:53;7.13;;;2.75;;
54899;SDS011;40801;41.924;25.562;2023-11-21T10:15:22;2.55;;;2.45;;
54899;SDS011;40801;41.924;25.562;2023-11-21T10:17:51;3.28;;;2.70;;
54899;SDS011;40801;41.924;25.562;2023-11-21T10:20:19;3.50;;;2.83;;
54899;SDS011;40801;41.924;25.562;2023-11-21T10:22:45;3.40;;;3.03;;
54899;SDS011;40801;41.924;25.562;2023-11-21T10:25:10;4.20;;;3.75;;
54899;SDS011;40801;41.924;25.562;2023-11-21T10:27:39;7.07;;;6.05;;
54899;SDS011;40801;41.924;25.562;2023-11-21T10:30:06;3.25;;;2.95;;
54899;SDS011;40801;41.924;25.562;2023-11-21T10:32:41;4.18;;;3.80;;
54899;SDS011;40801;41.924;25.562;2023-11-21T10:35:08;4.25;;;2.70;;
54899;SDS011;40801;41.924;25.562;2023-11-21T10:37:37;3.67;;;3.38;;
54899;SDS011;40801;41.924;25.562;2023-11-21T10:40:09;2.78;;;2.50;;
54899;SDS011;40801;41.924;25.562;2023-11-21T10:42:38;2.67;;;2.47;;
54899;SDS011;40801;41.924;25.562;2023-11-21T10:45:05;3.53;;;3.22;;
54899;SDS011;40801;41.924;25.562;2023-11-21T10:47:38;4.55;;;4.15;;
54899;SDS011;40801;41.924;25.562;2023-11-21T10:50:05;3.10;;;2.90;;
54899;SDS011;40801;41.924;25.562;2023-11-21T10:52:30;2.33;;;2.15;;
54899;SDS011;40801;41.924;25.562;2023-11-21T10:54:56;3.80;;;3.55;;
54899;SDS011;40801;41.924;25.562;2023-11-21T10:57:24;2.25;;;1.98;;
54899;SDS011;40801;41.924;25.562;2023-11-21T10:59:50;4.00;;;3.70;;
54899;SDS011;40801;41.924;25.562;2023-11-21T11:02:25;2.67;;;2.53;;
54899;SDS011;40801;41.924;25.562;2023-11-21T11:04:57;3.58;;;3.28;;
54899;SDS011;40801;41.924;25.562;2023-11-21T11:09:53;3.17;;;2.78;;
54899;SDS011;40801;41.924;25.562;2023-11-21T11:12:20;2.80;;;2.60;;
54899;SDS011;40801;41.924;25.562;2023-11-21T11:14:46;2.05;;;1.85;;
54899;SDS011;40801;41.924;25.562;2023-11-21T11:17:14;4.17;;;3.73;;
54899;SDS011;40801;41.924;25.562;2023-11-21T11:19:39;4.13;;;3.72;;
54899;SDS011;40801;41.924;25.562;2023-11-21T11:33:11;5.43;;;4.70;;
54899;SDS011;40801;41.924;25.562;2023-11-21T11:38:32;5.32;;;4.93;;
54899;SDS011;40801;41.924;25.562;2023-11-21T11:41:01;14.70;;;13.60;;
54899;SDS011;40801;41.924;25.562;2023-11-21T11:43:29;7.80;;;5.38;;
54899;SDS011;40801;41.924;25.562;2023-11-21T11:45:59;6.05;;;4.72;;
54899;SDS011;40801;41.924;25.562;2023-11-21T11:48:28;5.95;;;5.38;;
54899;SDS011;40801;41.924;25.562;2023-11-21T11:53:36;3.22;;;2.63;;
54899;SDS011;40801;41.924;25.562;2023-11-21T11:56:21;3.35;;;3.05;;
54899;SDS011;40801;41.924;25.562;2023-11-21T11:58:50;6.05;;;3.33;;
54899;SDS011;40801;41.924;25.562;2023-11-21T12:01:21;3.53;;;3.00;;
54899;SDS011;40801;41.924;25.562;2023-11-21T12:06:48;5.18;;;3.88;;
54899;SDS011;40801;41.924;25.562;2023-11-21T12:11:49;4.93;;;4.45;;
54899;SDS011;40801;41.924;25.562;2023-11-21T12:14:15;5.05;;;4.43;;
54899;SDS011;40801;41.924;25.562;2023-11-21T12:16:42;3.08;;;2.83;;
54899;SDS011;40801;41.924;25.562;2023-11-21T12:19:08;4.13;;;3.83;;
54899;SDS011;40801;41.924;25.562;2023-11-21T12:21:35;3.55;;;3.35;;
54899;SDS011;40801;41.924;25.562;2023-11-21T12:24:01;15.23;;;13.80;;
54899;SDS011;40801;41.924;25.562;2023-11-21T12:26:28;4.28;;;3.88;;
54899;SDS011;40801;41.924;25.562;2023-11-21T12:28:53;3.10;;;2.80;;
54899;SDS011;40801;41.924;25.562;2023-11-21T12:31:22;6.88;;;6.20;;
54899;SDS011;40801;41.924;25.562;2023-11-21T12:33:48;5.95;;;5.45;;
54899;SDS011;40801;41.924;25.562;2023-11-21T12:36:13;3.67;;;3.38;;
54899;SDS011;40801;41.924;25.562;2023-11-21T12:38:39;3.85;;;3.45;;
54899;SDS011;40801;41.924;25.562;2023-11-21T12:41:05;3.17;;;2.97;;
54899;SDS011;40801;41.924;25.562;2023-11-21T12:43:31;8.10;;;7.30;;
54899;SDS011;40801;41.924;25.562;2023-11-21T12:46:07;5.47;;;4.45;;
54899;SDS011;40801;41.924;25.562;2023-11-21T12:48:37;12.30;;;10.55;;
54899;SDS011;40801;41.924;25.562;2023-11-21T12:51:05;19.33;;;17.52;;
54899;SDS011;40801;41.924;25.562;2023-11-21T12:53:31;14.15;;;11.77;;
54899;SDS011;40801;41.924;25.562;2023-11-21T12:56:02;7.45;;;6.15;;
54899;SDS011;40801;41.924;25.562;2023-11-21T13:00:58;6.13;;;5.60;;
54899;SDS011;40801;41.924;25.562;2023-11-21T13:03:24;4.55;;;4.18;;
54899;SDS011;40801;41.924;25.562;2023-11-21T13:05:51;6.07;;;5.30;;
54899;SDS011;40801;41.924;25.562;2023-11-21T13:08:20;8.27;;;5.72;;
54899;SDS011;40801;41.924;25.562;2023-11-21T13:10:51;14.98;;;11.82;;
54899;SDS011;40801;41.924;25.562;2023-11-21T13:13:21;13.30;;;10.20;;
54899;SDS011;40801;41.924;25.562;2023-11-21T13:15:54;13.73;;;10.98;;
54899;SDS011;40801;41.924;25.562;2023-11-21T13:18:21;8.98;;;8.27;;
54899;SDS011;40801;41.924;25.562;2023-11-21T13:20:48;10.13;;;9.18;;
54899;SDS011;40801;41.924;25.562;2023-11-21T13:23:14;12.18;;;11.07;;
54899;SDS011;40801;41.924;25.562;2023-11-21T13:25:41;10.23;;;9.23;;
54899;SDS011;40801;41.924;25.562;2023-11-21T13:28:08;14.70;;;13.18;;
54899;SDS011;40801;41.924;25.562;2023-11-21T13:30:36;15.05;;;13.65;;
54899;SDS011;40801;41.924;25.562;2023-11-21T13:33:04;26.90;;;23.80;;
54899;SDS011;40801;41.924;25.562;2023-11-21T13:35:33;25.75;;;23.33;;
54899;SDS011;40801;41.924;25.562;2023-11-21T13:38:09;31.75;;;28.75;;
54899;SDS011;40801;41.924;25.562;2023-11-21T13:40:36;15.55;;;13.98;;
54899;SDS011;40801;41.924;25.562;2023-11-21T13:43:10;27.10;;;24.40;;
54899;SDS011;40801;41.924;25.562;2023-11-21T13:45:39;54.38;;;49.53;;
54899;SDS011;40801;41.924;25.562;2023-11-21T13:48:07;19.42;;;17.48;;
54899;SDS011;40801;41.924;25.562;2023-11-21T13:50:36;14.00;;;12.75;;
54899;SDS011;40801;41.924;25.562;2023-11-21T13:53:02;10.85;;;9.90;;
54899;SDS011;40801;41.924;25.562;2023-11-21T13:55:39;20.25;;;18.67;;
54899;SDS011;40801;41.924;25.562;2023-11-21T13:58:04;25.95;;;23.52;;
54899;SDS011;40801;41.924;25.562;2023-11-21T14:00:34;19.75;;;17.85;;
54899;SDS011;40801;41.924;25.562;2023-11-21T14:03:17;19.08;;;17.30;;
54899;SDS011;40801;41.924;25.562;2023-11-21T14:05:46;22.10;;;19.38;;
54899;SDS011;40801;41.924;25.562;2023-11-21T14:08:16;40.03;;;34.33;;
54899;SDS011;40801;41.924;25.562;2023-11-21T14:10:46;37.60;;;33.67;;
54899;SDS011;40801;41.924;25.562;2023-11-21T14:13:26;28.92;;;26.05;;
54899;SDS011;40801;41.924;25.562;2023-11-21T14:15:52;15.07;;;13.57;;
54899;SDS011;40801;41.924;25.562;2023-11-21T14:18:24;17.77;;;16.27;;
54899;SDS011;40801;41.924;25.562;2023-11-21T14:21:01;25.63;;;23.08;;
54899;SDS011;40801;41.924;25.562;2023-11-21T14:23:26;21.00;;;19.00;;
54899;SDS011;40801;41.924;25.562;2023-11-21T14:25:53;19.17;;;17.38;;
54899;SDS011;40801;41.924;25.562;2023-11-21T14:28:19;13.43;;;12.32;;
54899;SDS011;40801;41.924;25.562;2023-11-21T14:30:46;12.90;;;11.82;;
54899;SDS011;40801;41.924;25.562;2023-11-21T14:33:12;16.05;;;14.43;;
54899;SDS011;40801;41.924;25.562;2023-11-21T14:35:37;10.43;;;9.55;;
54899;SDS011;40801;41.924;25.562;2023-11-21T14:38:03;9.73;;;8.93;;
54899;SDS011;40801;41.924;25.562;2023-11-21T14:40:32;15.70;;;14.40;;
54899;SDS011;40801;41.924;25.562;2023-11-21T14:43:00;12.45;;;11.48;;
54899;SDS011;40801;41.924;25.562;2023-11-21T14:45:26;13.52;;;12.45;;
54899;SDS011;40801;41.924;25.562;2023-11-21T14:47:52;11.40;;;10.50;;
54899;SDS011;40801;41.924;25.562;2023-11-21T14:50:29;24.42;;;22.23;;
54899;SDS011;40801;41.924;25.562;2023-11-21T14:53:10;19.02;;;17.30;;
54899;SDS011;40801;41.924;25.562;2023-11-21T14:55:37;27.02;;;24.55;;
54899;SDS011;40801;41.924;25.562;2023-11-21T14:58:09;21.65;;;19.67;;
54899;SDS011;40801;41.924;25.562;2023-11-21T15:00:39;17.02;;;15.52;;
54899;SDS011;40801;41.924;25.562;2023-11-21T15:03:09;14.73;;;13.25;;